sensor_id;sensor_type;location;lat;lon;timestamp;temperature;humidity
67186;HTU21D;54116;53.518;49.398;2023-05-01T00:01:35;-0.55;118.99
67186;HTU21D;54116;53.518;49.398;2023-05-01T00:04:01;-0.37;118.99
67186;HTU21D;54116;53.518;49.398;2023-05-01T00:06:27;-0.32;118.99
67186;HTU21D;54116;53.518;49.398;2023-05-01T00:08:54;-0.47;118.99
67186;HTU21D;54116;53.518;49.398;2023-05-01T00:11:21;-0.52;118.99
67186;HTU21D;54116;53.518;49.398;2023-05-01T00:13:47;-0.46;118.99
67186;HTU21D;54116;53.518;49.398;2023-05-01T00:16:14;-0.50;118.99
67186;HTU21D;54116;53.518;49.398;2023-05-01T00:18:41;-0.54;118.99
67186;HTU21D;54116;53.518;49.398;2023-05-01T00:21:08;-0.55;118.99
67186;HTU21D;54116;53.518;49.398;2023-05-01T00:23:34;-0.57;118.99
67186;HTU21D;54116;53.518;49.398;2023-05-01T00:26:01;-0.58;118.99
67186;HTU21D;54116;53.518;49.398;2023-05-01T00:28:27;-0.59;118.99
67186;HTU21D;54116;53.518;49.398;2023-05-01T00:30:54;-0.55;118.99
67186;HTU21D;54116;53.518;49.398;2023-05-01T00:33:20;-0.55;118.99
67186;HTU21D;54116;53.518;49.398;2023-05-01T00:35:46;-0.60;118.99
67186;HTU21D;54116;53.518;49.398;2023-05-01T00:38:12;-0.58;118.99
67186;HTU21D;54116;53.518;49.398;2023-05-01T00:40:45;-0.68;118.99
67186;HTU21D;54116;53.518;49.398;2023-05-01T00:43:12;-0.68;118.99
67186;HTU21D;54116;53.518;49.398;2023-05-01T00:45:42;-0.61;118.99
67186;HTU21D;54116;53.518;49.398;2023-05-01T00:48:10;-0.62;118.99
67186;HTU21D;54116;53.518;49.398;2023-05-01T00:50:36;-0.59;118.99
67186;HTU21D;54116;53.518;49.398;2023-05-01T00:53:03;-0.54;118.99
67186;HTU21D;54116;53.518;49.398;2023-05-01T00:55:30;-0.60;118.99
67186;HTU21D;54116;53.518;49.398;2023-05-01T00:57:56;-0.59;118.99
67186;HTU21D;54116;53.518;49.398;2023-05-01T01:00:24;-0.53;118.99
67186;HTU21D;54116;53.518;49.398;2023-05-01T01:02:50;-0.46;118.99
67186;HTU21D;54116;53.518;49.398;2023-05-01T01:05:17;-0.53;118.99
67186;HTU21D;54116;53.518;49.398;2023-05-01T01:07:52;-0.40;118.99
67186;HTU21D;54116;53.518;49.398;2023-05-01T01:10:46;-0.50;118.99
67186;HTU21D;54116;53.518;49.398;2023-05-01T01:13:29;-0.52;118.99
67186;HTU21D;54116;53.518;49.398;2023-05-01T01:16:18;-0.54;118.99
67186;HTU21D;54116;53.518;49.398;2023-05-01T01:18:51;-0.60;118.99
67186;HTU21D;54116;53.518;49.398;2023-05-01T01:35:11;-0.46;118.99
67186;HTU21D;54116;53.518;49.398;2023-05-01T01:42:48;-0.40;118.99
67186;HTU21D;54116;53.518;49.398;2023-05-01T01:45:46;-0.42;118.99
67186;HTU21D;54116;53.518;49.398;2023-05-01T01:48:16;-0.28;118.99
67186;HTU21D;54116;53.518;49.398;2023-05-01T01:50:45;-0.34;118.99
67186;HTU21D;54116;53.518;49.398;2023-05-01T01:53:17;-0.39;118.99
67186;HTU21D;54116;53.518;49.398;2023-05-01T01:55:45;-0.34;118.99
67186;HTU21D;54116;53.518;49.398;2023-05-01T01:58:14;-0.21;118.99
67186;HTU21D;54116;53.518;49.398;2023-05-01T02:00:44;-0.36;118.99
67186;HTU21D;54116;53.518;49.398;2023-05-01T02:03:12;-0.25;118.99
67186;HTU21D;54116;53.518;49.398;2023-05-01T02:05:39;-0.34;118.99
67186;HTU21D;54116;53.518;49.398;2023-05-01T02:08:07;-0.39;118.99
67186;HTU21D;54116;53.518;49.398;2023-05-01T02:10:37;-0.38;118.99
67186;HTU21D;54116;53.518;49.398;2023-05-01T02:13:05;-0.40;118.99
67186;HTU21D;54116;53.518;49.398;2023-05-01T02:15:33;-0.47;118.99
67186;HTU21D;54116;53.518;49.398;2023-05-01T02:18:02;-0.34;118.99
67186;HTU21D;54116;53.518;49.398;2023-05-01T02:20:33;-0.42;118.99
67186;HTU21D;54116;53.518;49.398;2023-05-01T02:23:01;-0.39;118.99
67186;HTU21D;54116;53.518;49.398;2023-05-01T02:25:30;-0.35;118.99
67186;HTU21D;54116;53.518;49.398;2023-05-01T02:28:01;-0.28;118.99
67186;HTU21D;54116;53.518;49.398;2023-05-01T02:30:29;-0.25;118.99
67186;HTU21D;54116;53.518;49.398;2023-05-01T02:32:55;-0.13;118.99
67186;HTU21D;54116;53.518;49.398;2023-05-01T02:35:22;-0.16;118.99
67186;HTU21D;54116;53.518;49.398;2023-05-01T02:37:50;-0.19;118.99
67186;HTU21D;54116;53.518;49.398;2023-05-01T02:40:17;-0.20;118.99
67186;HTU21D;54116;53.518;49.398;2023-05-01T02:42:44;-0.21;118.99
67186;HTU21D;54116;53.518;49.398;2023-05-01T02:45:18;-0.22;118.99
67186;HTU21D;54116;53.518;49.398;2023-05-01T02:47:48;-0.28;118.99
67186;HTU21D;54116;53.518;49.398;2023-05-01T02:50:15;-0.10;118.99
67186;HTU21D;54116;53.518;49.398;2023-05-01T02:52:42;-0.21;118.99
67186;HTU21D;54116;53.518;49.398;2023-05-01T02:55:10;-0.15;118.99
67186;HTU21D;54116;53.518;49.398;2023-05-01T02:57:36;-0.24;118.99
67186;HTU21D;54116;53.518;49.398;2023-05-01T03:00:03;-0.31;118.99
67186;HTU21D;54116;53.518;49.398;2023-05-01T03:02:29;-0.34;118.99
67186;HTU21D;54116;53.518;49.398;2023-05-01T03:04:56;-0.26;118.99
67186;HTU21D;54116;53.518;49.398;2023-05-01T03:07:23;-0.34;118.99
67186;HTU21D;54116;53.518;49.398;2023-05-01T03:09:49;-0.37;118.99
67186;HTU21D;54116;53.518;49.398;2023-05-01T03:12:15;-0.38;118.99
67186;HTU21D;54116;53.518;49.398;2023-05-01T03:14:42;-0.31;118.99
67186;HTU21D;54116;53.518;49.398;2023-05-01T03:17:08;-0.19;118.99
67186;HTU21D;54116;53.518;49.398;2023-05-01T03:19:34;-0.31;118.99
67186;HTU21D;54116;53.518;49.398;2023-05-01T03:22:02;-0.15;118.99
67186;HTU21D;54116;53.518;49.398;2023-05-01T03:24:28;0.01;118.99
67186;HTU21D;54116;53.518;49.398;2023-05-01T03:26:55;0.53;118.99
67186;HTU21D;54116;53.518;49.398;2023-05-01T03:29:21;1.09;118.99
67186;HTU21D;54116;53.518;49.398;2023-05-01T03:31:47;1.57;118.99
67186;HTU21D;54116;53.518;49.398;2023-05-01T03:34:14;1.82;118.99
67186;HTU21D;54116;53.518;49.398;2023-05-01T03:36:40;1.93;118.99
67186;HTU21D;54116;53.518;49.398;2023-05-01T03:39:06;1.70;118.99
67186;HTU21D;54116;53.518;49.398;2023-05-01T03:41:33;1.68;118.99
67186;HTU21D;54116;53.518;49.398;2023-05-01T03:44:00;1.25;118.99
67186;HTU21D;54116;53.518;49.398;2023-05-01T03:46:26;1.07;118.99
67186;HTU21D;54116;53.518;49.398;2023-05-01T03:48:53;0.63;118.99
67186;HTU21D;54116;53.518;49.398;2023-05-01T03:51:19;0.45;118.99
67186;HTU21D;54116;53.518;49.398;2023-05-01T03:53:46;0.54;118.99
67186;HTU21D;54116;53.518;49.398;2023-05-01T03:56:12;0.53;118.99
67186;HTU21D;54116;53.518;49.398;2023-05-01T03:58:38;0.87;118.99
67186;HTU21D;54116;53.518;49.398;2023-05-01T04:01:05;1.08;118.99
67186;HTU21D;54116;53.518;49.398;2023-05-01T04:03:31;1.31;118.99
67186;HTU21D;54116;53.518;49.398;2023-05-01T04:05:57;1.98;118.99
67186;HTU21D;54116;53.518;49.398;2023-05-01T04:08:24;2.12;118.99
67186;HTU21D;54116;53.518;49.398;2023-05-01T04:10:50;1.87;118.99
67186;HTU21D;54116;53.518;49.398;2023-05-01T04:13:17;1.39;118.99
67186;HTU21D;54116;53.518;49.398;2023-05-01T04:15:44;1.03;118.99
67186;HTU21D;54116;53.518;49.398;2023-05-01T04:18:11;0.87;118.99
67186;HTU21D;54116;53.518;49.398;2023-05-01T04:20:37;0.92;118.99
67186;HTU21D;54116;53.518;49.398;2023-05-01T04:23:05;1.10;118.99
67186;HTU21D;54116;53.518;49.398;2023-05-01T04:25:31;1.61;118.99
67186;HTU21D;54116;53.518;49.398;2023-05-01T04:27:57;2.03;118.99
67186;HTU21D;54116;53.518;49.398;2023-05-01T04:30:24;2.51;118.99
67186;HTU21D;54116;53.518;49.398;2023-05-01T04:32:50;2.88;118.99
67186;HTU21D;54116;53.518;49.398;2023-05-01T04:35:16;3.14;118.99
67186;HTU21D;54116;53.518;49.398;2023-05-01T04:37:42;3.44;118.99
67186;HTU21D;54116;53.518;49.398;2023-05-01T04:40:09;3.39;118.99
67186;HTU21D;54116;53.518;49.398;2023-05-01T04:45:21;3.42;118.99
67186;HTU21D;54116;53.518;49.398;2023-05-01T04:47:47;3.58;118.99
67186;HTU21D;54116;53.518;49.398;2023-05-01T04:52:58;4.15;118.99
67186;HTU21D;54116;53.518;49.398;2023-05-01T04:55:44;4.28;118.99
67186;HTU21D;54116;53.518;49.398;2023-05-01T04:58:10;3.90;118.99
67186;HTU21D;54116;53.518;49.398;2023-05-01T05:00:55;4.05;118.99
67186;HTU21D;54116;53.518;49.398;2023-05-01T05:03:21;4.08;118.99
67186;HTU21D;54116;53.518;49.398;2023-05-01T05:05:48;4.24;118.99
67186;HTU21D;54116;53.518;49.398;2023-05-01T05:08:32;4.08;118.99
67186;HTU21D;54116;53.518;49.398;2023-05-01T05:11:00;3.72;118.99
67186;HTU21D;54116;53.518;49.398;2023-05-01T05:13:26;3.62;118.99
67186;HTU21D;54116;53.518;49.398;2023-05-01T05:15:53;3.59;118.99
67186;HTU21D;54116;53.518;49.398;2023-05-01T05:18:19;3.44;118.99
67186;HTU21D;54116;53.518;49.398;2023-05-01T05:20:45;3.55;118.99
67186;HTU21D;54116;53.518;49.398;2023-05-01T05:26:34;3.33;118.99
67186;HTU21D;54116;53.518;49.398;2023-05-01T05:29:01;3.15;118.99
67186;HTU21D;54116;53.518;49.398;2023-05-01T05:31:27;4.00;118.99
67186;HTU21D;54116;53.518;49.398;2023-05-01T05:33:54;4.07;118.99
67186;HTU21D;54116;53.518;49.398;2023-05-01T05:36:21;3.95;118.99
67186;HTU21D;54116;53.518;49.398;2023-05-01T05:38:47;4.12;118.99
67186;HTU21D;54116;53.518;49.398;2023-05-01T05:41:14;4.05;118.99
67186;HTU21D;54116;53.518;49.398;2023-05-01T05:43:41;4.03;118.99
67186;HTU21D;54116;53.518;49.398;2023-05-01T05:46:07;4.04;118.99
67186;HTU21D;54116;53.518;49.398;2023-05-01T05:48:33;3.77;118.99
67186;HTU21D;54116;53.518;49.398;2023-05-01T05:51:00;3.79;118.99
67186;HTU21D;54116;53.518;49.398;2023-05-01T05:53:26;3.79;118.99
67186;HTU21D;54116;53.518;49.398;2023-05-01T05:55:52;3.82;118.99
67186;HTU21D;54116;53.518;49.398;2023-05-01T05:58:19;3.88;118.99
67186;HTU21D;54116;53.518;49.398;2023-05-01T06:00:46;3.84;118.99
67186;HTU21D;54116;53.518;49.398;2023-05-01T06:03:32;3.75;118.99
67186;HTU21D;54116;53.518;49.398;2023-05-01T06:05:58;3.99;118.99
67186;HTU21D;54116;53.518;49.398;2023-05-01T06:08:24;3.99;118.99
67186;HTU21D;54116;53.518;49.398;2023-05-01T06:10:51;4.26;118.99
67186;HTU21D;54116;53.518;49.398;2023-05-01T06:13:17;4.36;118.99
67186;HTU21D;54116;53.518;49.398;2023-05-01T06:15:49;4.57;118.99
67186;HTU21D;54116;53.518;49.398;2023-05-01T06:18:15;4.39;118.99
67186;HTU21D;54116;53.518;49.398;2023-05-01T06:20:41;4.06;118.99
67186;HTU21D;54116;53.518;49.398;2023-05-01T06:23:08;3.93;118.99
67186;HTU21D;54116;53.518;49.398;2023-05-01T06:25:34;3.97;118.99
67186;HTU21D;54116;53.518;49.398;2023-05-01T06:28:02;3.90;118.99
67186;HTU21D;54116;53.518;49.398;2023-05-01T06:30:29;3.84;118.99
67186;HTU21D;54116;53.518;49.398;2023-05-01T06:32:55;3.98;118.99
67186;HTU21D;54116;53.518;49.398;2023-05-01T06:35:21;4.18;118.99
67186;HTU21D;54116;53.518;49.398;2023-05-01T06:37:48;3.94;118.99
67186;HTU21D;54116;53.518;49.398;2023-05-01T06:40:14;3.98;118.99
67186;HTU21D;54116;53.518;49.398;2023-05-01T06:42:41;3.78;118.99
67186;HTU21D;54116;53.518;49.398;2023-05-01T06:45:08;3.85;118.99
67186;HTU21D;54116;53.518;49.398;2023-05-01T06:47:34;3.71;118.99
67186;HTU21D;54116;53.518;49.398;2023-05-01T06:50:01;3.59;118.99
67186;HTU21D;54116;53.518;49.398;2023-05-01T06:52:29;3.78;118.99
67186;HTU21D;54116;53.518;49.398;2023-05-01T06:54:56;3.76;118.99
67186;HTU21D;54116;53.518;49.398;2023-05-01T06:57:40;3.56;118.99
67186;HTU21D;54116;53.518;49.398;2023-05-01T07:00:08;3.50;118.99
67186;HTU21D;54116;53.518;49.398;2023-05-01T07:02:54;3.47;118.99
67186;HTU21D;54116;53.518;49.398;2023-05-01T07:05:20;3.42;118.99
67186;HTU21D;54116;53.518;49.398;2023-05-01T07:07:47;3.43;118.99
67186;HTU21D;54116;53.518;49.398;2023-05-01T07:10:14;3.52;118.99
67186;HTU21D;54116;53.518;49.398;2023-05-01T07:12:40;3.58;118.99
67186;HTU21D;54116;53.518;49.398;2023-05-01T07:15:06;3.65;118.99
67186;HTU21D;54116;53.518;49.398;2023-05-01T07:17:33;3.57;118.99
67186;HTU21D;54116;53.518;49.398;2023-05-01T07:22:44;3.40;118.99
67186;HTU21D;54116;53.518;49.398;2023-05-01T07:25:10;3.32;118.99
67186;HTU21D;54116;53.518;49.398;2023-05-01T07:27:55;3.10;118.99
67186;HTU21D;54116;53.518;49.398;2023-05-01T07:30:21;3.32;118.99
67186;HTU21D;54116;53.518;49.398;2023-05-01T07:32:47;3.58;118.99
67186;HTU21D;54116;53.518;49.398;2023-05-01T07:35:13;3.36;118.99
67186;HTU21D;54116;53.518;49.398;2023-05-01T07:37:39;3.61;118.99
67186;HTU21D;54116;53.518;49.398;2023-05-01T07:40:06;3.71;118.99
67186;HTU21D;54116;53.518;49.398;2023-05-01T07:42:33;4.00;118.99
67186;HTU21D;54116;53.518;49.398;2023-05-01T07:44:59;3.97;118.99
67186;HTU21D;54116;53.518;49.398;2023-05-01T07:47:25;3.91;118.99
67186;HTU21D;54116;53.518;49.398;2023-05-01T07:49:52;4.08;118.99
67186;HTU21D;54116;53.518;49.398;2023-05-01T07:52:18;4.22;118.99
67186;HTU21D;54116;53.518;49.398;2023-05-01T07:54:50;4.08;118.99
67186;HTU21D;54116;53.518;49.398;2023-05-01T07:57:16;4.14;118.99
67186;HTU21D;54116;53.518;49.398;2023-05-01T07:59:43;4.31;118.99
67186;HTU21D;54116;53.518;49.398;2023-05-01T08:02:16;4.30;118.99
67186;HTU21D;54116;53.518;49.398;2023-05-01T08:04:42;4.09;118.99
67186;HTU21D;54116;53.518;49.398;2023-05-01T08:07:08;3.95;118.99
67186;HTU21D;54116;53.518;49.398;2023-05-01T08:09:34;4.01;118.99
67186;HTU21D;54116;53.518;49.398;2023-05-01T08:12:00;4.12;118.99
67186;HTU21D;54116;53.518;49.398;2023-05-01T08:14:28;4.21;118.99
67186;HTU21D;54116;53.518;49.398;2023-05-01T08:16:54;4.14;118.99
67186;HTU21D;54116;53.518;49.398;2023-05-01T08:19:22;4.06;118.99
67186;HTU21D;54116;53.518;49.398;2023-05-01T08:21:48;4.03;118.99
67186;HTU21D;54116;53.518;49.398;2023-05-01T08:24:15;4.04;118.99
67186;HTU21D;54116;53.518;49.398;2023-05-01T08:26:41;4.12;118.99
67186;HTU21D;54116;53.518;49.398;2023-05-01T08:29:07;4.12;118.99
67186;HTU21D;54116;53.518;49.398;2023-05-01T08:31:33;4.06;118.99
67186;HTU21D;54116;53.518;49.398;2023-05-01T08:34:03;4.07;118.99
67186;HTU21D;54116;53.518;49.398;2023-05-01T08:36:29;4.07;118.99
67186;HTU21D;54116;53.518;49.398;2023-05-01T08:38:58;4.10;118.99
67186;HTU21D;54116;53.518;49.398;2023-05-01T08:41:24;4.20;118.99
67186;HTU21D;54116;53.518;49.398;2023-05-01T08:43:52;4.08;118.99
67186;HTU21D;54116;53.518;49.398;2023-05-01T08:48:59;4.18;118.99
67186;HTU21D;54116;53.518;49.398;2023-05-01T08:51:26;4.03;118.99
67186;HTU21D;54116;53.518;49.398;2023-05-01T08:53:55;4.09;118.99
67186;HTU21D;54116;53.518;49.398;2023-05-01T08:56:24;4.41;118.99
67186;HTU21D;54116;53.518;49.398;2023-05-01T08:58:52;4.38;118.99
67186;HTU21D;54116;53.518;49.398;2023-05-01T09:01:21;4.54;118.99
67186;HTU21D;54116;53.518;49.398;2023-05-01T09:03:49;4.56;118.99
67186;HTU21D;54116;53.518;49.398;2023-05-01T09:06:18;4.39;118.99
67186;HTU21D;54116;53.518;49.398;2023-05-01T09:08:44;4.42;118.99
67186;HTU21D;54116;53.518;49.398;2023-05-01T09:11:10;4.45;118.99
67186;HTU21D;54116;53.518;49.398;2023-05-01T09:13:37;4.37;118.99
67186;HTU21D;54116;53.518;49.398;2023-05-01T09:16:04;4.43;118.99
67186;HTU21D;54116;53.518;49.398;2023-05-01T09:18:33;4.37;118.99
67186;HTU21D;54116;53.518;49.398;2023-05-01T09:20:59;4.43;118.99
67186;HTU21D;54116;53.518;49.398;2023-05-01T09:23:43;4.38;118.99
67186;HTU21D;54116;53.518;49.398;2023-05-01T09:26:10;4.43;118.99
67186;HTU21D;54116;53.518;49.398;2023-05-01T09:28:47;4.44;118.99
67186;HTU21D;54116;53.518;49.398;2023-05-01T09:34:08;4.47;118.99
67186;HTU21D;54116;53.518;49.398;2023-05-01T09:36:36;4.58;118.99
67186;HTU21D;54116;53.518;49.398;2023-05-01T09:39:02;4.62;118.99
67186;HTU21D;54116;53.518;49.398;2023-05-01T09:41:29;4.66;118.99
67186;HTU21D;54116;53.518;49.398;2023-05-01T09:44:17;4.57;118.99
67186;HTU21D;54116;53.518;49.398;2023-05-01T09:46:49;4.49;118.99
67186;HTU21D;54116;53.518;49.398;2023-05-01T09:49:16;4.64;118.99
67186;HTU21D;54116;53.518;49.398;2023-05-01T09:52:10;4.59;118.99
67186;HTU21D;54116;53.518;49.398;2023-05-01T09:54:37;4.54;118.99
67186;HTU21D;54116;53.518;49.398;2023-05-01T09:57:04;4.73;118.99
67186;HTU21D;54116;53.518;49.398;2023-05-01T09:59:30;4.59;118.99
67186;HTU21D;54116;53.518;49.398;2023-05-01T10:01:59;4.56;118.99
67186;HTU21D;54116;53.518;49.398;2023-05-01T10:04:32;4.53;118.99
67186;HTU21D;54116;53.518;49.398;2023-05-01T10:07:12;4.48;118.99
67186;HTU21D;54116;53.518;49.398;2023-05-01T10:09:38;4.51;118.99
67186;HTU21D;54116;53.518;49.398;2023-05-01T10:12:05;4.60;118.99
67186;HTU21D;54116;53.518;49.398;2023-05-01T10:14:32;4.67;118.99
67186;HTU21D;54116;53.518;49.398;2023-05-01T10:17:18;4.62;118.99
67186;HTU21D;54116;53.518;49.398;2023-05-01T10:19:45;4.88;118.99
67186;HTU21D;54116;53.518;49.398;2023-05-01T10:22:14;4.94;118.99
67186;HTU21D;54116;53.518;49.398;2023-05-01T10:24:59;4.69;118.99
67186;HTU21D;54116;53.518;49.398;2023-05-01T10:27:26;4.76;118.99
67186;HTU21D;54116;53.518;49.398;2023-05-01T10:29:53;4.81;118.99
67186;HTU21D;54116;53.518;49.398;2023-05-01T10:32:20;4.73;118.99
67186;HTU21D;54116;53.518;49.398;2023-05-01T10:34:56;4.64;118.99
67186;HTU21D;54116;53.518;49.398;2023-05-01T10:40:46;4.82;118.99
67186;HTU21D;54116;53.518;49.398;2023-05-01T10:43:19;4.90;118.99
67186;HTU21D;54116;53.518;49.398;2023-05-01T10:45:51;4.88;118.99
67186;HTU21D;54116;53.518;49.398;2023-05-01T10:51:10;4.73;118.99
67186;HTU21D;54116;53.518;49.398;2023-05-01T10:59:04;4.72;118.99
67186;HTU21D;54116;53.518;49.398;2023-05-01T11:01:41;4.66;118.99
67186;HTU21D;54116;53.518;49.398;2023-05-01T11:12:07;4.62;118.99
67186;HTU21D;54116;53.518;49.398;2023-05-01T11:20:07;4.75;118.99
67186;HTU21D;54116;53.518;49.398;2023-05-01T11:22:44;4.86;118.99
67186;HTU21D;54116;53.518;49.398;2023-05-01T11:25:18;4.78;118.99
67186;HTU21D;54116;53.518;49.398;2023-05-01T11:27:55;4.68;118.99
67186;HTU21D;54116;53.518;49.398;2023-05-01T11:30:22;4.74;118.99
67186;HTU21D;54116;53.518;49.398;2023-05-01T11:32:49;4.64;118.99
67186;HTU21D;54116;53.518;49.398;2023-05-01T11:35:22;4.59;118.99
67186;HTU21D;54116;53.518;49.398;2023-05-01T11:37:49;4.47;118.99
67186;HTU21D;54116;53.518;49.398;2023-05-01T11:40:28;4.63;118.99
67186;HTU21D;54116;53.518;49.398;2023-05-01T11:43:02;4.64;118.99
67186;HTU21D;54116;53.518;49.398;2023-05-01T11:48:15;4.80;118.99
67186;HTU21D;54116;53.518;49.398;2023-05-01T11:53:26;4.86;118.99
67186;HTU21D;54116;53.518;49.398;2023-05-01T11:55:53;4.90;118.99
67186;HTU21D;54116;53.518;49.398;2023-05-01T11:58:29;4.97;118.99
67186;HTU21D;54116;53.518;49.398;2023-05-01T12:00:57;4.90;118.99
67186;HTU21D;54116;53.518;49.398;2023-05-01T12:03:23;5.00;118.99
67186;HTU21D;54116;53.518;49.398;2023-05-01T12:05:50;5.03;118.99
67186;HTU21D;54116;53.518;49.398;2023-05-01T12:08:19;5.09;118.99
67186;HTU21D;54116;53.518;49.398;2023-05-01T12:10:50;5.13;118.99
67186;HTU21D;54116;53.518;49.398;2023-05-01T12:13:44;5.19;118.99
67186;HTU21D;54116;53.518;49.398;2023-05-01T12:16:12;4.83;118.99
67186;HTU21D;54116;53.518;49.398;2023-05-01T12:18:41;4.65;118.99
67186;HTU21D;54116;53.518;49.398;2023-05-01T12:21:14;4.66;118.99
67186;HTU21D;54116;53.518;49.398;2023-05-01T12:23:40;4.62;118.99
67186;HTU21D;54116;53.518;49.398;2023-05-01T12:26:20;4.66;118.99
67186;HTU21D;54116;53.518;49.398;2023-05-01T12:29:00;4.54;118.99
67186;HTU21D;54116;53.518;49.398;2023-05-01T12:31:27;4.52;118.99
67186;HTU21D;54116;53.518;49.398;2023-05-01T12:34:00;4.59;118.99
67186;HTU21D;54116;53.518;49.398;2023-05-01T12:36:30;4.38;118.99
67186;HTU21D;54116;53.518;49.398;2023-05-01T12:38:58;4.34;118.99
67186;HTU21D;54116;53.518;49.398;2023-05-01T12:41:40;4.30;118.99
67186;HTU21D;54116;53.518;49.398;2023-05-01T12:47:03;4.29;118.99
67186;HTU21D;54116;53.518;49.398;2023-05-01T12:49:30;4.15;118.99
67186;HTU21D;54116;53.518;49.398;2023-05-01T12:51:59;4.07;118.99
67186;HTU21D;54116;53.518;49.398;2023-05-01T12:54:31;4.03;118.99
67186;HTU21D;54116;53.518;49.398;2023-05-01T12:57:08;4.03;118.99
67186;HTU21D;54116;53.518;49.398;2023-05-01T12:59:35;3.92;118.99
67186;HTU21D;54116;53.518;49.398;2023-05-01T13:02:03;3.92;118.99
67186;HTU21D;54116;53.518;49.398;2023-05-01T13:04:29;3.86;118.99
67186;HTU21D;54116;53.518;49.398;2023-05-01T13:06:56;3.89;118.99
67186;HTU21D;54116;53.518;49.398;2023-05-01T13:09:24;3.83;118.99
67186;HTU21D;54116;53.518;49.398;2023-05-01T13:14:57;3.61;118.99
67186;HTU21D;54116;53.518;49.398;2023-05-01T13:17:28;3.54;118.99
67186;HTU21D;54116;53.518;49.398;2023-05-01T13:24:55;3.34;118.99
67186;HTU21D;54116;53.518;49.398;2023-05-01T13:27:40;3.49;118.99
67186;HTU21D;54116;53.518;49.398;2023-05-01T13:30:12;3.23;118.99
67186;HTU21D;54116;53.518;49.398;2023-05-01T13:32:40;3.28;118.99
67186;HTU21D;54116;53.518;49.398;2023-05-01T13:35:25;3.23;118.99
67186;HTU21D;54116;53.518;49.398;2023-05-01T13:37:52;3.11;118.99
67186;HTU21D;54116;53.518;49.398;2023-05-01T13:40:19;3.16;118.99
67186;HTU21D;54116;53.518;49.398;2023-05-01T13:42:51;3.21;118.99
67186;HTU21D;54116;53.518;49.398;2023-05-01T13:45:19;3.16;118.99
67186;HTU21D;54116;53.518;49.398;2023-05-01T13:47:50;3.31;118.99
67186;HTU21D;54116;53.518;49.398;2023-05-01T13:50:17;3.25;118.99
67186;HTU21D;54116;53.518;49.398;2023-05-01T13:52:44;3.17;118.99
67186;HTU21D;54116;53.518;49.398;2023-05-01T13:55:11;3.25;118.99
67186;HTU21D;54116;53.518;49.398;2023-05-01T14:00:23;3.06;118.99
67186;HTU21D;54116;53.518;49.398;2023-05-01T14:02:50;3.03;118.99
67186;HTU21D;54116;53.518;49.398;2023-05-01T14:05:23;3.04;118.99
67186;HTU21D;54116;53.518;49.398;2023-05-01T14:07:57;2.99;118.99
67186;HTU21D;54116;53.518;49.398;2023-05-01T14:10:26;3.21;118.99
67186;HTU21D;54116;53.518;49.398;2023-05-01T14:12:59;3.05;118.99
67186;HTU21D;54116;53.518;49.398;2023-05-01T14:15:25;3.11;118.99
67186;HTU21D;54116;53.518;49.398;2023-05-01T14:17:52;3.13;118.99
67186;HTU21D;54116;53.518;49.398;2023-05-01T14:20:19;3.13;118.99
67186;HTU21D;54116;53.518;49.398;2023-05-01T14:22:48;3.19;118.99
67186;HTU21D;54116;53.518;49.398;2023-05-01T14:25:30;3.19;118.99
67186;HTU21D;54116;53.518;49.398;2023-05-01T14:27:58;3.03;118.99
67186;HTU21D;54116;53.518;49.398;2023-05-01T14:30:29;2.93;118.99
67186;HTU21D;54116;53.518;49.398;2023-05-01T14:33:01;2.97;118.99
67186;HTU21D;54116;53.518;49.398;2023-05-01T14:35:28;2.97;118.99
67186;HTU21D;54116;53.518;49.398;2023-05-01T14:37:54;2.94;118.99
67186;HTU21D;54116;53.518;49.398;2023-05-01T14:40:27;2.99;118.99
67186;HTU21D;54116;53.518;49.398;2023-05-01T14:42:53;2.91;118.99
67186;HTU21D;54116;53.518;49.398;2023-05-01T14:45:42;2.80;118.99
67186;HTU21D;54116;53.518;49.398;2023-05-01T14:48:21;2.81;118.99
67186;HTU21D;54116;53.518;49.398;2023-05-01T14:50:48;2.79;118.99
67186;HTU21D;54116;53.518;49.398;2023-05-01T14:53:14;2.73;118.99
67186;HTU21D;54116;53.518;49.398;2023-05-01T14:58:44;2.61;118.99
67186;HTU21D;54116;53.518;49.398;2023-05-01T15:01:12;2.59;118.99
67186;HTU21D;54116;53.518;49.398;2023-05-01T15:03:57;2.59;118.99
67186;HTU21D;54116;53.518;49.398;2023-05-01T15:06:25;2.68;118.99
67186;HTU21D;54116;53.518;49.398;2023-05-01T15:08:51;2.55;118.99
67186;HTU21D;54116;53.518;49.398;2023-05-01T15:11:18;2.66;118.99
67186;HTU21D;54116;53.518;49.398;2023-05-01T15:13:45;2.55;118.99
67186;HTU21D;54116;53.518;49.398;2023-05-01T15:16:14;2.46;118.99
67186;HTU21D;54116;53.518;49.398;2023-05-01T15:18:40;2.45;118.99
67186;HTU21D;54116;53.518;49.398;2023-05-01T15:21:06;2.37;118.99
67186;HTU21D;54116;53.518;49.398;2023-05-01T15:23:33;2.34;118.99
67186;HTU21D;54116;53.518;49.398;2023-05-01T15:31:28;2.35;118.99
67186;HTU21D;54116;53.518;49.398;2023-05-01T15:33:55;2.20;118.99
67186;HTU21D;54116;53.518;49.398;2023-05-01T15:39:06;2.08;118.99
67186;HTU21D;54116;53.518;49.398;2023-05-01T15:41:37;1.99;118.99
67186;HTU21D;54116;53.518;49.398;2023-05-01T15:44:21;1.91;118.99
67186;HTU21D;54116;53.518;49.398;2023-05-01T15:46:47;1.86;118.99
67186;HTU21D;54116;53.518;49.398;2023-05-01T15:49:13;1.84;118.99
67186;HTU21D;54116;53.518;49.398;2023-05-01T15:51:58;1.91;118.99
67186;HTU21D;54116;53.518;49.398;2023-05-01T15:54:24;1.71;118.99
67186;HTU21D;54116;53.518;49.398;2023-05-01T15:56:52;1.69;118.99
67186;HTU21D;54116;53.518;49.398;2023-05-01T16:02:03;1.50;118.99
67186;HTU21D;54116;53.518;49.398;2023-05-01T16:04:29;1.53;118.99
67186;HTU21D;54116;53.518;49.398;2023-05-01T16:06:55;1.43;118.99
67186;HTU21D;54116;53.518;49.398;2023-05-01T16:09:28;1.39;118.99
67186;HTU21D;54116;53.518;49.398;2023-05-01T16:11:54;1.47;118.99
67186;HTU21D;54116;53.518;49.398;2023-05-01T16:14:20;1.33;118.99
67186;HTU21D;54116;53.518;49.398;2023-05-01T16:16:47;1.27;118.99
67186;HTU21D;54116;53.518;49.398;2023-05-01T16:19:14;1.27;118.99
67186;HTU21D;54116;53.518;49.398;2023-05-01T16:22:02;1.24;118.99
67186;HTU21D;54116;53.518;49.398;2023-05-01T16:27:32;1.25;118.99
67186;HTU21D;54116;53.518;49.398;2023-05-01T16:29:59;1.09;118.99
67186;HTU21D;54116;53.518;49.398;2023-05-01T16:32:28;1.03;118.99
67186;HTU21D;54116;53.518;49.398;2023-05-01T16:35:16;1.01;118.99
67186;HTU21D;54116;53.518;49.398;2023-05-01T16:37:43;0.98;118.99
67186;HTU21D;54116;53.518;49.398;2023-05-01T16:40:15;0.92;118.99
67186;HTU21D;54116;53.518;49.398;2023-05-01T16:42:41;1.01;118.99
67186;HTU21D;54116;53.518;49.398;2023-05-01T16:45:08;0.87;118.99
67186;HTU21D;54116;53.518;49.398;2023-05-01T16:47:34;0.88;118.99
67186;HTU21D;54116;53.518;49.398;2023-05-01T16:50:07;0.78;118.99